sensor_id;sensor_type;location;lat;lon;timestamp;pressure;altitude;pressure_sealevel;temperature;humidity
71938;BME280;59810;48.800;9.086;2023-04-23T00:01:06;96994.34;;;13.84;64.58
71938;BME280;59810;48.800;9.086;2023-04-23T00:03:33;96998.97;;;13.84;64.63
71938;BME280;59810;48.800;9.086;2023-04-23T00:06:07;96995.50;;;13.78;64.68
71938;BME280;59810;48.800;9.086;2023-04-23T00:08:38;96998.78;;;13.75;64.81
71938;BME280;59810;48.800;9.086;2023-04-23T00:11:08;96993.38;;;13.75;65.37
71938;BME280;59810;48.800;9.086;2023-04-23T00:13:34;96996.59;;;13.77;65.08
71938;BME280;59810;48.800;9.086;2023-04-23T00:16:02;96996.59;;;13.77;65.48
71938;BME280;59810;48.800;9.086;2023-04-23T00:18:30;96998.50;;;13.77;65.35
71938;BME280;59810;48.800;9.086;2023-04-23T00:20:55;96995.28;;;13.75;65.83
71938;BME280;59810;48.800;9.086;2023-04-23T00:23:21;96996.09;;;13.75;65.72
71938;BME280;59810;48.800;9.086;2023-04-23T00:25:46;96997.69;;;13.76;65.76
71938;BME280;59810;48.800;9.086;2023-04-23T00:28:12;96995.28;;;13.75;66.19
71938;BME280;59810;48.800;9.086;2023-04-23T00:30:37;96996.94;;;13.70;66.58
71938;BME280;59810;48.800;9.086;2023-04-23T00:33:03;96996.69;;;13.67;67.54
71938;BME280;59810;48.800;9.086;2023-04-23T00:35:28;97000.75;;;13.64;67.46
71938;BME280;59810;48.800;9.086;2023-04-23T00:37:54;97001.88;;;13.63;67.47
71938;BME280;59810;48.800;9.086;2023-04-23T00:40:20;96997.81;;;13.61;67.60
71938;BME280;59810;48.800;9.086;2023-04-23T00:42:45;97013.34;;;13.55;68.15
71938;BME280;59810;48.800;9.086;2023-04-23T00:45:11;97010.09;;;13.53;68.01
71938;BME280;59810;48.800;9.086;2023-04-23T00:47:36;97020.66;;;13.55;67.89
71938;BME280;59810;48.800;9.086;2023-04-23T00:50:04;97026.13;;;13.50;68.30
71938;BME280;59810;48.800;9.086;2023-04-23T00:52:30;97027.22;;;13.49;68.21
71938;BME280;59810;48.800;9.086;2023-04-23T00:54:56;97020.69;;;13.50;68.16
71938;BME280;59810;48.800;9.086;2023-04-23T00:57:22;97028.59;;;13.46;68.39
71938;BME280;59810;48.800;9.086;2023-04-23T00:59:50;97021.84;;;13.44;68.69
71938;BME280;59810;48.800;9.086;2023-04-23T01:02:16;97027.25;;;13.44;68.56
71938;BME280;59810;48.800;9.086;2023-04-23T01:04:43;97028.94;;;13.39;68.79
71938;BME280;59810;48.800;9.086;2023-04-23T01:07:10;97028.13;;;13.39;68.73
71938;BME280;59810;48.800;9.086;2023-04-23T01:09:39;97023.25;;;13.36;69.00
71938;BME280;59810;48.800;9.086;2023-04-23T01:12:05;97027.59;;;13.32;69.41
71938;BME280;59810;48.800;9.086;2023-04-23T01:14:31;97017.31;;;13.29;69.40
71938;BME280;59810;48.800;9.086;2023-04-23T01:16:57;97030.06;;;13.28;69.56
71938;BME280;59810;48.800;9.086;2023-04-23T01:19:23;97033.38;;;13.20;70.18
71938;BME280;59810;48.800;9.086;2023-04-23T01:21:50;97034.19;;;13.21;70.06
71938;BME280;59810;48.800;9.086;2023-04-23T01:24:19;97041.53;;;13.15;70.63
71938;BME280;59810;48.800;9.086;2023-04-23T01:26:44;97049.13;;;13.13;71.24
71938;BME280;59810;48.800;9.086;2023-04-23T01:29:10;97043.75;;;13.08;71.57
71938;BME280;59810;48.800;9.086;2023-04-23T01:31:37;97042.72;;;12.94;72.82
71938;BME280;59810;48.800;9.086;2023-04-23T01:34:02;97039.19;;;12.93;73.12
71938;BME280;59810;48.800;9.086;2023-04-23T01:36:28;97044.69;;;12.83;73.90
71938;BME280;59810;48.800;9.086;2023-04-23T01:38:54;97043.38;;;12.75;74.41
71938;BME280;59810;48.800;9.086;2023-04-23T01:41:19;97051.78;;;12.74;74.70
71938;BME280;59810;48.800;9.086;2023-04-23T01:43:45;97047.41;;;12.78;74.34
71938;BME280;59810;48.800;9.086;2023-04-23T01:46:11;97046.59;;;12.77;74.25
71938;BME280;59810;48.800;9.086;2023-04-23T01:48:39;97042.31;;;12.71;74.70
71938;BME280;59810;48.800;9.086;2023-04-23T01:51:04;97036.88;;;12.71;74.73
71938;BME280;59810;48.800;9.086;2023-04-23T01:53:30;97043.38;;;12.75;74.30
71938;BME280;59810;48.800;9.086;2023-04-23T01:55:58;97048.22;;;12.78;74.27
71938;BME280;59810;48.800;9.086;2023-04-23T01:58:24;97043.66;;;12.74;74.32
71938;BME280;59810;48.800;9.086;2023-04-23T02:00:50;97045.53;;;12.73;74.56
71938;BME280;59810;48.800;9.086;2023-04-23T02:03:17;97041.22;;;12.72;75.10
71938;BME280;59810;48.800;9.086;2023-04-23T02:05:43;97051.78;;;12.74;74.88
71938;BME280;59810;48.800;9.086;2023-04-23T02:08:09;97050.16;;;12.68;76.03
71938;BME280;59810;48.800;9.086;2023-04-23T02:10:35;97042.31;;;12.66;75.95
71938;BME280;59810;48.800;9.086;2023-04-23T02:13:02;97050.44;;;12.66;75.99
71938;BME280;59810;48.800;9.086;2023-04-23T02:15:28;97060.19;;;12.62;76.48
71938;BME280;59810;48.800;9.086;2023-04-23T02:17:53;97072.94;;;12.62;76.68
71938;BME280;59810;48.800;9.086;2023-04-23T02:20:19;97072.66;;;12.63;76.51
71938;BME280;59810;48.800;9.086;2023-04-23T02:22:46;97076.44;;;12.62;76.71
71938;BME280;59810;48.800;9.086;2023-04-23T02:25:13;97071.56;;;12.64;76.42
71938;BME280;59810;48.800;9.086;2023-04-23T02:27:40;97069.94;;;12.63;77.14
71938;BME280;59810;48.800;9.086;2023-04-23T02:30:06;97066.16;;;12.64;77.34
71938;BME280;59810;48.800;9.086;2023-04-23T02:32:36;97070.22;;;12.62;77.97
71938;BME280;59810;48.800;9.086;2023-04-23T02:35:01;97066.97;;;12.60;78.89
71938;BME280;59810;48.800;9.086;2023-04-23T02:37:32;97073.50;;;12.54;80.77
71938;BME280;59810;48.800;9.086;2023-04-23T02:39:57;97070.28;;;12.52;80.49
71938;BME280;59810;48.800;9.086;2023-04-23T02:42:25;97057.31;;;12.43;82.14
71938;BME280;59810;48.800;9.086;2023-04-23T02:44:50;97055.69;;;12.32;85.54
71938;BME280;59810;48.800;9.086;2023-04-23T02:47:16;97060.34;;;12.22;87.35
71938;BME280;59810;48.800;9.086;2023-04-23T02:49:41;97054.41;;;12.14;86.91
71938;BME280;59810;48.800;9.086;2023-04-23T02:52:09;97040.59;;;12.11;87.54
71938;BME280;59810;48.800;9.086;2023-04-23T02:54:37;97049.56;;;12.06;87.74
71938;BME280;59810;48.800;9.086;2023-04-23T02:57:03;97050.09;;;12.08;87.94
71938;BME280;59810;48.800;9.086;2023-04-23T02:59:31;97057.66;;;12.06;88.34
71938;BME280;59810;48.800;9.086;2023-04-23T03:01:56;97067.69;;;12.06;88.82
71938;BME280;59810;48.800;9.086;2023-04-23T03:04:22;97053.88;;;11.97;89.85
71938;BME280;59810;48.800;9.086;2023-04-23T03:06:47;97066.59;;;11.92;89.58
71938;BME280;59810;48.800;9.086;2023-04-23T03:09:13;97061.75;;;11.78;91.58
71938;BME280;59810;48.800;9.086;2023-04-23T03:11:38;97055.78;;;11.76;88.75
71938;BME280;59810;48.800;9.086;2023-04-23T03:14:04;97059.84;;;11.74;88.31
71938;BME280;59810;48.800;9.086;2023-04-23T03:16:30;97062.00;;;11.72;90.51
71938;BME280;59810;48.800;9.086;2023-04-23T03:18:56;97058.47;;;11.66;91.08
71938;BME280;59810;48.800;9.086;2023-04-23T03:21:22;97051.16;;;11.62;89.71
71938;BME280;59810;48.800;9.086;2023-04-23T03:23:47;97049.53;;;11.61;91.24
71938;BME280;59810;48.800;9.086;2023-04-23T03:26:12;97046.84;;;11.61;90.44
71938;BME280;59810;48.800;9.086;2023-04-23T03:28:38;97040.34;;;11.57;91.42
71938;BME280;59810;48.800;9.086;2023-04-23T03:31:03;97042.25;;;11.56;90.28
71938;BME280;59810;48.800;9.086;2023-04-23T03:33:28;97048.47;;;11.57;88.22
71938;BME280;59810;48.800;9.086;2023-04-23T03:35:54;97052.50;;;11.59;87.63
71938;BME280;59810;48.800;9.086;2023-04-23T03:38:19;97042.78;;;11.53;88.07
71938;BME280;59810;48.800;9.086;2023-04-23T03:40:45;97049.56;;;11.50;87.99
71938;BME280;59810;48.800;9.086;2023-04-23T03:43:13;97041.44;;;11.50;89.50
71938;BME280;59810;48.800;9.086;2023-04-23T03:45:38;97038.19;;;11.48;88.03
71938;BME280;59810;48.800;9.086;2023-04-23T03:48:03;97041.97;;;11.47;87.21
71938;BME280;59810;48.800;9.086;2023-04-23T03:50:29;97040.09;;;11.48;87.56
71938;BME280;59810;48.800;9.086;2023-04-23T03:52:55;97039.00;;;11.49;87.20
71938;BME280;59810;48.800;9.086;2023-04-23T03:55:23;97036.03;;;11.50;86.01
71938;BME280;59810;48.800;9.086;2023-04-23T03:57:51;97040.91;;;11.48;86.13
71938;BME280;59810;48.800;9.086;2023-04-23T04:00:19;97049.81;;;11.44;86.07
71938;BME280;59810;48.800;9.086;2023-04-23T04:02:44;97057.66;;;11.45;85.65
71938;BME280;59810;48.800;9.086;2023-04-23T04:05:10;97055.50;;;11.47;85.77
71938;BME280;59810;48.800;9.086;2023-04-23T04:07:35;97059.28;;;11.46;85.79
71938;BME280;59810;48.800;9.086;2023-04-23T04:10:02;97058.75;;;11.44;86.35
71938;BME280;59810;48.800;9.086;2023-04-23T04:12:28;97059.81;;;11.43;86.18
71938;BME280;59810;48.800;9.086;2023-04-23T04:14:53;97059.56;;;11.40;86.10
71938;BME280;59810;48.800;9.086;2023-04-23T04:17:19;97060.06;;;11.37;86.15
71938;BME280;59810;48.800;9.086;2023-04-23T04:19:46;97057.09;;;11.33;86.63
71938;BME280;59810;48.800;9.086;2023-04-23T04:22:14;97053.56;;;11.33;85.82
71938;BME280;59810;48.800;9.086;2023-04-23T04:24:40;97053.31;;;11.29;86.30
71938;BME280;59810;48.800;9.086;2023-04-23T04:27:08;97057.63;;;11.25;86.81
71938;BME280;59810;48.800;9.086;2023-04-23T04:29:33;97068.97;;;11.27;85.86
71938;BME280;59810;48.800;9.086;2023-04-23T04:32:01;97061.69;;;11.28;84.97
71938;BME280;59810;48.800;9.086;2023-04-23T04:34:27;97057.63;;;11.25;85.27
71938;BME280;59810;48.800;9.086;2023-04-23T04:36:53;97067.34;;;11.31;84.60
71938;BME280;59810;48.800;9.086;2023-04-23T04:39:21;97065.75;;;11.30;84.85
71938;BME280;59810;48.800;9.086;2023-04-23T04:41:46;97062.22;;;11.30;84.54
71938;BME280;59810;48.800;9.086;2023-04-23T04:44:12;97058.72;;;11.29;84.77
71938;BME280;59810;48.800;9.086;2023-04-23T04:46:39;97054.91;;;11.25;84.84
71938;BME280;59810;48.800;9.086;2023-04-23T04:49:10;97057.63;;;11.25;85.32
71938;BME280;59810;48.800;9.086;2023-04-23T04:51:39;97063.56;;;11.27;85.82
71938;BME280;59810;48.800;9.086;2023-04-23T04:54:06;97061.13;;;11.26;85.80
71938;BME280;59810;48.800;9.086;2023-04-23T04:56:32;97065.47;;;11.27;85.96
71938;BME280;59810;48.800;9.086;2023-04-23T04:59:00;97063.84;;;11.26;86.76
71938;BME280;59810;48.800;9.086;2023-04-23T05:01:27;97064.38;;;11.22;87.15
71938;BME280;59810;48.800;9.086;2023-04-23T05:03:56;97063.03;;;11.20;89.09
71938;BME280;59810;48.800;9.086;2023-04-23T05:06:21;97066.81;;;11.24;88.94
71938;BME280;59810;48.800;9.086;2023-04-23T05:08:47;97058.44;;;11.15;92.03
71938;BME280;59810;48.800;9.086;2023-04-23T05:11:17;97057.63;;;11.15;91.95
71938;BME280;59810;48.800;9.086;2023-04-23T05:13:43;97053.84;;;11.16;90.86
71938;BME280;59810;48.800;9.086;2023-04-23T05:16:08;97052.22;;;11.15;91.00
71938;BME280;59810;48.800;9.086;2023-04-23T05:18:35;97059.50;;;11.19;90.85
71938;BME280;59810;48.800;9.086;2023-04-23T05:21:00;97056.53;;;11.21;88.78
71938;BME280;59810;48.800;9.086;2023-04-23T05:23:26;97058.44;;;11.31;88.16
71938;BME280;59810;48.800;9.086;2023-04-23T05:25:51;97059.28;;;11.41;87.80
71938;BME280;59810;48.800;9.086;2023-04-23T05:28:20;97067.38;;;11.51;86.52
71938;BME280;59810;48.800;9.086;2023-04-23T05:30:49;97063.06;;;11.61;86.19
71938;BME280;59810;48.800;9.086;2023-04-23T05:33:14;97067.91;;;11.69;85.73
71938;BME280;59810;48.800;9.086;2023-04-23T05:35:40;97067.13;;;11.73;85.85
71938;BME280;59810;48.800;9.086;2023-04-23T05:38:05;97058.22;;;11.73;86.74
71938;BME280;59810;48.800;9.086;2023-04-23T05:40:31;97066.34;;;11.78;86.12
71938;BME280;59810;48.800;9.086;2023-04-23T05:42:59;97067.44;;;11.82;85.23
71938;BME280;59810;48.800;9.086;2023-04-23T05:45:25;97069.03;;;11.83;85.05
71938;BME280;59810;48.800;9.086;2023-04-23T05:47:50;97064.97;;;11.91;83.04
71938;BME280;59810;48.800;9.086;2023-04-23T05:50:16;97067.66;;;12.01;83.67
71938;BME280;59810;48.800;9.086;2023-04-23T05:52:41;97070.38;;;12.01;83.46
71938;BME280;59810;48.800;9.086;2023-04-23T05:55:07;97076.88;;;12.05;83.35
71938;BME280;59810;48.800;9.086;2023-04-23T05:57:36;97078.22;;;12.07;83.95
71938;BME280;59810;48.800;9.086;2023-04-23T06:00:06;97072.28;;;12.05;83.76
71938;BME280;59810;48.800;9.086;2023-04-23T06:02:36;97073.91;;;12.06;84.82
71938;BME280;59810;48.800;9.086;2023-04-23T06:05:02;97077.66;;;12.15;84.60
71938;BME280;59810;48.800;9.086;2023-04-23T06:07:30;97081.47;;;12.14;84.07
71938;BME280;59810;48.800;9.086;2023-04-23T06:09:55;97074.41;;;12.24;84.28
71938;BME280;59810;48.800;9.086;2023-04-23T06:12:20;97077.09;;;12.29;85.15
71938;BME280;59810;48.800;9.086;2023-04-23T06:14:46;97074.09;;;12.35;83.34
71938;BME280;59810;48.800;9.086;2023-04-23T06:17:11;97077.34;;;12.42;82.94
71938;BME280;59810;48.800;9.086;2023-04-23T06:19:37;97071.34;;;12.51;80.04
71938;BME280;59810;48.800;9.086;2023-04-23T06:22:05;97077.56;;;12.56;78.61
71938;BME280;59810;48.800;9.086;2023-04-23T06:24:30;97076.50;;;12.52;79.06
71938;BME280;59810;48.800;9.086;2023-04-23T06:26:58;97080.25;;;12.61;78.27
71938;BME280;59810;48.800;9.086;2023-04-23T06:29:26;97075.16;;;12.50;79.23
71938;BME280;59810;48.800;9.086;2023-04-23T06:31:54;97061.63;;;12.44;80.13
71938;BME280;59810;48.800;9.086;2023-04-23T06:34:19;97074.88;;;12.46;79.67
71938;BME280;59810;48.800;9.086;2023-04-23T06:36:44;97069.47;;;12.51;78.30
71938;BME280;59810;48.800;9.086;2023-04-23T06:39:14;97070.53;;;12.55;78.64
71938;BME280;59810;48.800;9.086;2023-04-23T06:41:40;97069.97;;;12.58;79.29
71938;BME280;59810;48.800;9.086;2023-04-23T06:44:08;97068.59;;;12.61;77.98
71938;BME280;59810;48.800;9.086;2023-04-23T06:46:33;97059.66;;;12.60;77.49
71938;BME280;59810;48.800;9.086;2023-04-23T06:48:58;97059.16;;;12.53;77.61
71938;BME280;59810;48.800;9.086;2023-04-23T06:51:26;97057.53;;;12.52;78.52
71938;BME280;59810;48.800;9.086;2023-04-23T06:53:52;97068.34;;;12.57;77.56
71938;BME280;59810;48.800;9.086;2023-04-23T06:56:18;97055.63;;;12.58;77.66
71938;BME280;59810;48.800;9.086;2023-04-23T06:58:44;97052.69;;;12.49;77.46
71938;BME280;59810;48.800;9.086;2023-04-23T07:01:09;97047.78;;;12.56;77.11
71938;BME280;59810;48.800;9.086;2023-04-23T07:03:35;97055.84;;;12.66;77.44
71938;BME280;59810;48.800;9.086;2023-04-23T07:06:03;97050.44;;;12.71;78.42
71938;BME280;59810;48.800;9.086;2023-04-23T07:08:31;97050.38;;;12.82;82.70
71938;BME280;59810;48.800;9.086;2023-04-23T07:11:00;97043.78;;;12.98;86.36
71938;BME280;59810;48.800;9.086;2023-04-23T07:13:26;97039.41;;;13.07;79.85
71938;BME280;59810;48.800;9.086;2023-04-23T07:15:51;97039.09;;;13.19;78.60
71938;BME280;59810;48.800;9.086;2023-04-23T07:18:16;97038.41;;;13.42;81.66
71938;BME280;59810;48.800;9.086;2023-04-23T07:20:42;97036.41;;;13.53;78.75
71938;BME280;59810;48.800;9.086;2023-04-23T07:23:11;97036.13;;;13.54;72.89
71938;BME280;59810;48.800;9.086;2023-04-23T07:25:37;97039.50;;;13.75;72.55
71938;BME280;59810;48.800;9.086;2023-04-23T07:28:02;97040.53;;;13.79;70.27
71938;BME280;59810;48.800;9.086;2023-04-23T07:30:29;97031.88;;;13.77;69.96
71938;BME280;59810;48.800;9.086;2023-04-23T07:32:54;97036.06;;;13.93;69.59
71938;BME280;59810;48.800;9.086;2023-04-23T07:35:23;97039.56;;;13.99;68.16
71938;BME280;59810;48.800;9.086;2023-04-23T07:37:51;97038.75;;;13.98;68.24
71938;BME280;59810;48.800;9.086;2023-04-23T07:40:21;97043.09;;;13.94;68.15
71938;BME280;59810;48.800;9.086;2023-04-23T07:42:47;97032.75;;;13.96;68.12
71938;BME280;59810;48.800;9.086;2023-04-23T07:45:12;97037.66;;;13.99;66.31
71938;BME280;59810;48.800;9.086;2023-04-23T07:47:40;97031.25;;;13.85;67.78
71938;BME280;59810;48.800;9.086;2023-04-23T07:50:06;97028.25;;;13.87;67.31
71938;BME280;59810;48.800;9.086;2023-04-23T07:52:32;97023.09;;;13.85;67.43
71938;BME280;59810;48.800;9.086;2023-04-23T07:54:57;97022.63;;;13.78;68.26
71938;BME280;59810;48.800;9.086;2023-04-23T07:57:22;97022.34;;;13.80;68.25
71938;BME280;59810;48.800;9.086;2023-04-23T07:59:48;97021.16;;;13.91;66.66
71938;BME280;59810;48.800;9.086;2023-04-23T08:02:15;97031.41;;;13.99;65.30
71938;BME280;59810;48.800;9.086;2023-04-23T08:04:42;97023.22;;;14.04;65.84
71938;BME280;59810;48.800;9.086;2023-04-23T08:07:07;97023.97;;;14.10;65.95
71938;BME280;59810;48.800;9.086;2023-04-23T08:09:33;97011.59;;;14.22;67.11
71938;BME280;59810;48.800;9.086;2023-04-23T08:11:58;97003.06;;;14.34;65.98
71938;BME280;59810;48.800;9.086;2023-04-23T08:14:26;97005.69;;;14.44;65.25
71938;BME280;59810;48.800;9.086;2023-04-23T08:16:51;96995.56;;;14.50;66.02
71938;BME280;59810;48.800;9.086;2023-04-23T08:19:17;97002.41;;;14.47;63.95
71938;BME280;59810;48.800;9.086;2023-04-23T08:21:42;97001.28;;;14.48;63.11
71938;BME280;59810;48.800;9.086;2023-04-23T08:24:10;96999.59;;;14.52;63.71
71938;BME280;59810;48.800;9.086;2023-04-23T08:26:35;97007.09;;;14.60;63.30
71938;BME280;59810;48.800;9.086;2023-04-23T08:29:03;97004.31;;;14.47;64.00
71938;BME280;59810;48.800;9.086;2023-04-23T08:31:29;97004.63;;;14.40;65.08
71938;BME280;59810;48.800;9.086;2023-04-23T08:33:56;96998.31;;;14.21;65.58
71938;BME280;59810;48.800;9.086;2023-04-23T08:36:22;96999.59;;;14.52;72.30
71938;BME280;59810;48.800;9.086;2023-04-23T08:38:47;96999.44;;;14.68;70.31
71938;BME280;59810;48.800;9.086;2023-04-23T08:41:14;96995.53;;;14.74;67.60
71938;BME280;59810;48.800;9.086;2023-04-23T08:43:53;96989.88;;;14.70;67.52
71938;BME280;59810;48.800;9.086;2023-04-23T08:46:22;96994.69;;;14.97;68.70
71938;BME280;59810;48.800;9.086;2023-04-23T08:48:51;96994.38;;;15.17;66.26
71938;BME280;59810;48.800;9.086;2023-04-23T08:51:17;96991.75;;;15.31;64.27
71938;BME280;59810;48.800;9.086;2023-04-23T08:53:44;96994.75;;;15.30;62.44
71938;BME280;59810;48.800;9.086;2023-04-23T08:56:13;96987.28;;;15.54;60.50
71938;BME280;59810;48.800;9.086;2023-04-23T08:58:39;96985.41;;;15.36;60.91
71938;BME280;59810;48.800;9.086;2023-04-23T09:01:06;96984.25;;;15.55;60.26
71938;BME280;59810;48.800;9.086;2023-04-23T09:03:34;96981.81;;;15.54;61.81
71938;BME280;59810;48.800;9.086;2023-04-23T09:06:00;96980.50;;;15.70;62.89
71938;BME280;59810;48.800;9.086;2023-04-23T09:08:25;96976.28;;;15.64;62.33
71938;BME280;59810;48.800;9.086;2023-04-23T09:10:56;96970.66;;;15.55;62.68
71938;BME280;59810;48.800;9.086;2023-04-23T09:13:24;96974.88;;;15.48;62.39
71938;BME280;59810;48.800;9.086;2023-04-23T09:15:52;96966.38;;;15.36;63.12
71938;BME280;59810;48.800;9.086;2023-04-23T09:18:18;96967.91;;;15.23;63.87
71938;BME280;59810;48.800;9.086;2023-04-23T09:20:44;96967.19;;;15.17;63.55
71938;BME280;59810;48.800;9.086;2023-04-23T09:23:13;96963.06;;;15.39;63.67
71938;BME280;59810;48.800;9.086;2023-04-23T09:25:38;96958.97;;;15.55;66.06
71938;BME280;59810;48.800;9.086;2023-04-23T09:28:06;96963.88;;;15.72;66.80
71938;BME280;59810;48.800;9.086;2023-04-23T09:30:37;96959.97;;;15.92;64.43
71938;BME280;59810;48.800;9.086;2023-04-23T09:33:06;96958.69;;;16.03;64.64
71938;BME280;59810;48.800;9.086;2023-04-23T09:35:31;96945.09;;;16.30;64.43
71938;BME280;59810;48.800;9.086;2023-04-23T09:38:02;96943.66;;;16.05;58.85
71938;BME280;59810;48.800;9.086;2023-04-23T09:40:31;96936.19;;;15.97;57.06
71938;BME280;59810;48.800;9.086;2023-04-23T09:42:57;96934.00;;;16.27;59.85
71938;BME280;59810;48.800;9.086;2023-04-23T09:45:23;96930.72;;;16.52;59.95
71938;BME280;59810;48.800;9.086;2023-04-23T09:47:57;96927.16;;;16.79;59.67
71938;BME280;59810;48.800;9.086;2023-04-23T09:52:58;96926.44;;;16.87;52.12
71938;BME280;59810;48.800;9.086;2023-04-23T09:55:33;96918.56;;;16.86;51.03
71938;BME280;59810;48.800;9.086;2023-04-23T09:58:02;96926.94;;;16.89;54.12
71938;BME280;59810;48.800;9.086;2023-04-23T10:00:32;96924.34;;;17.06;54.83
71938;BME280;59810;48.800;9.086;2023-04-23T10:03:00;96923.06;;;17.04;50.51
71938;BME280;59810;48.800;9.086;2023-04-23T10:05:26;96924.09;;;17.17;51.07
71938;BME280;59810;48.800;9.086;2023-04-23T10:07:52;96911.94;;;17.23;48.91
71938;BME280;59810;48.800;9.086;2023-04-23T10:10:23;96906.38;;;17.05;49.61
71938;BME280;59810;48.800;9.086;2023-04-23T10:12:51;96904.38;;;17.20;51.60
71938;BME280;59810;48.800;9.086;2023-04-23T10:15:17;96904.22;;;17.38;49.01
71938;BME280;59810;48.800;9.086;2023-04-23T10:17:45;96900.91;;;17.50;50.79
71938;BME280;59810;48.800;9.086;2023-04-23T10:20:11;96892.84;;;17.45;49.20
71938;BME280;59810;48.800;9.086;2023-04-23T10:22:38;96888.88;;;17.51;48.40
71938;BME280;59810;48.800;9.086;2023-04-23T10:25:11;96890.66;;;17.56;45.64
71938;BME280;59810;48.800;9.086;2023-04-23T10:27:41;96895.31;;;17.55;44.27
71938;BME280;59810;48.800;9.086;2023-04-23T10:30:11;96889.91;;;17.64;44.60
71938;BME280;59810;48.800;9.086;2023-04-23T10:32:37;96888.19;;;17.68;45.56
71938;BME280;59810;48.800;9.086;2023-04-23T10:35:08;96877.44;;;17.71;45.02
71938;BME280;59810;48.800;9.086;2023-04-23T10:37:39;96879.50;;;17.97;43.79
71938;BME280;59810;48.800;9.086;2023-04-23T10:40:13;96872.75;;;18.03;43.54
71938;BME280;59810;48.800;9.086;2023-04-23T10:42:39;96872.47;;;18.13;43.34
71938;BME280;59810;48.800;9.086;2023-04-23T10:45:15;96869.16;;;18.33;43.41
71938;BME280;59810;48.800;9.086;2023-04-23T10:47:44;96874.03;;;18.54;42.55
71938;BME280;59810;48.800;9.086;2023-04-23T10:50:19;96861.94;;;18.46;42.42
71938;BME280;59810;48.800;9.086;2023-04-23T10:52:48;96867.22;;;18.25;45.45
71938;BME280;59810;48.800;9.086;2023-04-23T10:55:19;96855.97;;;18.35;43.56
71938;BME280;59810;48.800;9.086;2023-04-23T11:00:41;96852.00;;;18.59;43.11
71938;BME280;59810;48.800;9.086;2023-04-23T11:03:35;96852.50;;;18.95;42.19
71938;BME280;59810;48.800;9.086;2023-04-23T11:06:04;96849.28;;;18.93;42.71
71938;BME280;59810;48.800;9.086;2023-04-23T11:08:30;96850.72;;;19.08;41.39
71938;BME280;59810;48.800;9.086;2023-04-23T11:11:00;96845.88;;;19.05;41.59
71938;BME280;59810;48.800;9.086;2023-04-23T11:13:28;96849.13;;;18.99;41.72
71938;BME280;59810;48.800;9.086;2023-04-23T11:16:16;96834.16;;;18.70;41.97
71938;BME280;59810;48.800;9.086;2023-04-23T11:19:00;96842.50;;;18.82;42.87
71938;BME280;59810;48.800;9.086;2023-04-23T11:22:05;96832.22;;;18.71;42.33
71938;BME280;59810;48.800;9.086;2023-04-23T11:24:41;96833.19;;;18.83;43.81
71938;BME280;59810;48.800;9.086;2023-04-23T11:27:09;96835.78;;;18.88;42.77
71938;BME280;59810;48.800;9.086;2023-04-23T11:29:38;96826.44;;;18.89;42.96
71938;BME280;59810;48.800;9.086;2023-04-23T11:32:04;96828.81;;;19.08;41.68
71938;BME280;59810;48.800;9.086;2023-04-23T11:34:35;96816.25;;;19.16;41.03
71938;BME280;59810;48.800;9.086;2023-04-23T11:37:01;96820.75;;;19.29;40.69
71938;BME280;59810;48.800;9.086;2023-04-23T11:39:27;96811.53;;;19.34;41.21
71938;BME280;59810;48.800;9.086;2023-04-23T11:41:52;96808.59;;;19.47;41.99
71938;BME280;59810;48.800;9.086;2023-04-23T11:44:21;96820.09;;;19.79;42.20
71938;BME280;59810;48.800;9.086;2023-04-23T11:46:48;96807.88;;;19.76;40.83
71938;BME280;59810;48.800;9.086;2023-04-23T11:49:17;96796.91;;;19.30;41.07
71938;BME280;59810;48.800;9.086;2023-04-23T11:51:46;96790.47;;;19.17;41.56
71938;BME280;59810;48.800;9.086;2023-04-23T11:54:12;96790.25;;;19.39;41.15
71938;BME280;59810;48.800;9.086;2023-04-23T11:56:41;96784.59;;;19.44;40.90
71938;BME280;59810;48.800;9.086;2023-04-23T11:59:07;96783.41;;;19.24;41.64
71938;BME280;59810;48.800;9.086;2023-04-23T12:01:39;96782.25;;;19.34;41.76
71938;BME280;59810;48.800;9.086;2023-04-23T12:04:18;96773.81;;;19.56;41.52
71938;BME280;59810;48.800;9.086;2023-04-23T12:06:48;96761.88;;;19.52;41.14
71938;BME280;59810;48.800;9.086;2023-04-23T12:09:14;96764.13;;;19.50;41.78
71938;BME280;59810;48.800;9.086;2023-04-23T12:11:42;96760.91;;;19.48;41.54
71938;BME280;59810;48.800;9.086;2023-04-23T12:14:09;96755.94;;;19.59;42.21
71938;BME280;59810;48.800;9.086;2023-04-23T12:19:00;96753.38;;;19.54;41.60
71938;BME280;59810;48.800;9.086;2023-04-23T12:21:25;96744.44;;;19.27;41.42
71938;BME280;59810;48.800;9.086;2023-04-23T12:23:54;96734.63;;;19.18;41.38
71938;BME280;59810;48.800;9.086;2023-04-23T12:26:20;96738.56;;;19.55;41.82
71938;BME280;59810;48.800;9.086;2023-04-23T12:28:46;96732.47;;;20.00;41.18
71938;BME280;59810;48.800;9.086;2023-04-23T12:31:18;96727.53;;;19.64;40.84
71938;BME280;59810;48.800;9.086;2023-04-23T12:33:46;96728.50;;;19.68;40.98
71938;BME280;59810;48.800;9.086;2023-04-23T12:36:14;96741.72;;;19.95;41.01
71938;BME280;59810;48.800;9.086;2023-04-23T12:38:40;96727.44;;;20.52;39.69
71938;BME280;59810;48.800;9.086;2023-04-23T12:41:09;96732.66;;;20.45;39.23
71938;BME280;59810;48.800;9.086;2023-04-23T12:43:35;96707.50;;;20.64;39.87
71938;BME280;59810;48.800;9.086;2023-04-23T12:46:00;96707.19;;;21.23;38.32
71938;BME280;59810;48.800;9.086;2023-04-23T12:48:25;96700.25;;;21.50;37.97
71938;BME280;59810;48.800;9.086;2023-04-23T12:50:53;96699.97;;;20.73;38.77
71938;BME280;59810;48.800;9.086;2023-04-23T12:53:18;96689.88;;;20.98;38.62
71938;BME280;59810;48.800;9.086;2023-04-23T12:55:46;96695.16;;;21.15;38.80
71938;BME280;59810;48.800;9.086;2023-04-23T12:58:12;96700.63;;;21.03;37.26
71938;BME280;59810;48.800;9.086;2023-04-23T13:00:37;96688.56;;;21.28;37.13
71938;BME280;59810;48.800;9.086;2023-04-23T13:03:03;96672.31;;;21.60;35.89
71938;BME280;59810;48.800;9.086;2023-04-23T13:05:28;96683.31;;;21.35;37.04
71938;BME280;59810;48.800;9.086;2023-04-23T13:07:54;96676.66;;;21.24;38.35